createdAt,value
2019-04-14T00:01:45.671Z,64.00
2019-04-14T00:04:16.115Z,64.50
2019-04-14T00:06:46.183Z,64.40
2019-04-14T00:09:16.385Z,65.40
2019-04-14T00:11:46.014Z,64.60
2019-04-14T00:14:14.759Z,64.60
2019-04-14T00:16:44.528Z,64.80
2019-04-14T00:19:13.162Z,64.90
2019-04-14T00:21:41.763Z,64.60
2019-04-14T00:24:10.199Z,64.60
2019-04-14T00:26:40.087Z,64.40
2019-04-14T00:29:08.994Z,63.70
2019-04-14T00:31:37.658Z,63.80
2019-04-14T00:34:07.838Z,63.70
2019-04-14T00:36:43.858Z,64.50
2019-04-14T00:39:13.981Z,63.60
2019-04-14T00:41:50.462Z,64.00
2019-04-14T00:44:16.759Z,63.60
2019-04-14T00:46:49.837Z,63.60
2019-04-14T00:49:18.293Z,63.50
2019-04-14T00:51:46.871Z,63.90
2019-04-14T00:54:15.475Z,63.80
2019-04-14T00:56:44.040Z,63.30
2019-04-14T00:59:13.638Z,63.30
2019-04-14T01:01:42.230Z,63.60
2019-04-14T01:04:10.746Z,64.10
2019-04-14T01:06:40.376Z,63.30
2019-04-14T01:09:10.771Z,64.00
2019-04-14T01:11:40.006Z,64.00
2019-04-14T01:14:08.568Z,63.80
2019-04-14T01:16:37.139Z,64.20
2019-04-14T01:19:06.809Z,64.70
2019-04-14T01:21:35.437Z,64.30
2019-04-14T01:24:05.238Z,63.90
2019-04-14T01:26:33.834Z,65.20
2019-04-14T01:29:03.613Z,64.50
2019-04-14T01:31:32.124Z,64.10
2019-04-14T01:34:01.859Z,64.90
2019-04-14T01:36:30.508Z,64.60
2019-04-14T01:39:00.247Z,64.60
2019-04-14T01:41:28.918Z,64.00
2019-04-14T01:43:58.236Z,63.80
2019-04-14T01:46:30.807Z,64.00
2019-04-14T01:48:57.114Z,63.30
2019-04-14T01:51:35.725Z,63.20
2019-04-14T01:54:06.165Z,63.60
2019-04-14T01:56:40.507Z,64.20
2019-04-14T01:59:10.832Z,64.10
2019-04-14T02:01:44.070Z,64.20
2019-04-14T02:04:13.860Z,64.30
2019-04-14T02:06:42.375Z,64.30
2019-04-14T02:09:12.055Z,63.90
2019-04-14T02:11:40.698Z,63.80
2019-04-14T02:14:10.338Z,64.50
2019-04-14T02:16:44.386Z,64.60
2019-04-14T02:19:09.108Z,64.20
2019-04-14T02:21:38.768Z,64.90
2019-04-14T02:24:07.487Z,65.00
2019-04-14T02:26:37.226Z,64.90
2019-04-14T02:29:05.877Z,64.00
2019-04-14T02:32:06.594Z,63.90
2019-04-14T02:37:04.770Z,64.00
2019-04-14T02:42:17.560Z,64.80
2019-04-14T02:44:39.388Z,64.80
2019-04-14T02:49:38.996Z,64.60
2019-04-14T02:52:04.458Z,64.80
2019-04-14T02:54:44.423Z,64.70
2019-04-14T02:57:12.138Z,64.20
2019-04-14T02:59:37.076Z,65.20
2019-04-14T03:04:38.668Z,64.70
2019-04-14T03:07:05.480Z,64.10
2019-04-14T03:09:41.819Z,64.20
2019-04-14T03:14:40.543Z,64.80
2019-04-14T03:19:59.092Z,64.40
2019-04-14T03:25:09.748Z,64.40
2019-04-14T03:27:55.198Z,64.90
2019-04-14T03:36:05.327Z,65.70
2019-04-14T03:38:05.366Z,65.00
2019-04-14T03:40:54.894Z,65.10
2019-04-14T03:43:03.932Z,65.90
2019-04-14T03:45:35.816Z,65.90
2019-04-14T03:48:20.884Z,65.60
2019-04-14T03:50:29.263Z,64.90
2019-04-14T03:53:11.980Z,65.50
2019-04-14T03:55:16.230Z,65.20
2019-04-14T03:57:34.528Z,64.80
2019-04-14T04:00:03.289Z,65.00
2019-04-14T04:02:31.874Z,63.90
2019-04-14T04:05:00.310Z,64.50
2019-04-14T04:07:29.981Z,64.40
2019-04-14T04:10:00.490Z,64.20
2019-04-14T04:12:29.278Z,63.40
2019-04-14T04:14:57.742Z,63.80
2019-04-14T04:17:34.162Z,63.30
2019-04-14T04:20:20.143Z,63.60
2019-04-14T04:22:50.235Z,63.90
2019-04-14T04:25:22.818Z,63.90
2019-04-14T04:28:05.881Z,63.60
2019-04-14T04:30:36.332Z,63.50
2019-04-14T04:33:09.305Z,64.00
2019-04-14T04:35:39.413Z,63.80
2019-04-14T04:38:09.630Z,63.40
2019-04-14T04:40:38.196Z,64.40
2019-04-14T04:43:07.899Z,63.90
2019-04-14T04:45:36.621Z,64.40
2019-04-14T04:48:06.576Z,64.00
2019-04-14T04:50:35.281Z,64.50
2019-04-14T04:53:04.833Z,63.90
2019-04-14T04:55:33.452Z,65.10
2019-04-14T04:58:01.907Z,65.30
2019-04-14T05:00:30.975Z,64.50
2019-04-14T05:02:59.685Z,64.50
2019-04-14T05:06:00.367Z,65.50
2019-04-14T05:08:28.877Z,65.60
2019-04-14T05:11:17.054Z,65.40
2019-04-14T05:13:47.233Z,65.50
2019-04-14T05:16:15.678Z,65.10
2019-04-14T05:18:44.190Z,64.60
2019-04-14T05:21:12.764Z,65.10
2019-04-14T05:23:41.543Z,64.30
2019-04-14T05:26:11.246Z,65.00
2019-04-14T05:28:39.906Z,64.20
2019-04-14T05:31:09.651Z,64.70
2019-04-14T05:33:38.343Z,64.20
2019-04-14T05:36:06.808Z,63.80
2019-04-14T05:38:35.799Z,64.20
2019-04-14T05:41:05.377Z,64.00
2019-04-14T05:43:40.585Z,63.70
2019-04-14T05:46:04.098Z,63.40
2019-04-14T05:48:33.629Z,63.80
2019-04-14T05:51:02.242Z,62.80
2019-04-14T05:53:30.784Z,62.90
2019-04-14T05:55:59.327Z,63.10
2019-04-14T05:58:27.913Z,62.80
2019-04-14T06:00:56.431Z,62.70
2019-04-14T06:03:25.680Z,62.50
2019-04-14T06:05:54.307Z,61.90
2019-04-14T06:08:22.775Z,61.60
2019-04-14T06:10:51.311Z,61.60
2019-04-14T06:13:19.798Z,61.10
2019-04-14T06:15:48.236Z,61.60
2019-04-14T06:18:16.683Z,61.20
2019-04-14T06:20:45.202Z,61.30
2019-04-14T06:23:13.663Z,61.20
2019-04-14T06:25:42.103Z,60.70
2019-04-14T06:28:10.569Z,60.40
2019-04-14T06:30:56.971Z,61.20
2019-04-14T06:33:45.347Z,61.60
2019-04-14T06:36:31.497Z,61.50
2019-04-14T06:39:01.735Z,60.90
2019-04-14T06:41:30.187Z,61.50
2019-04-14T06:43:58.638Z,60.70
2019-04-14T06:46:27.070Z,60.80
2019-04-14T06:48:55.533Z,60.40
2019-04-14T06:51:23.971Z,59.80
2019-04-14T06:53:52.504Z,59.50
2019-04-14T06:56:20.971Z,59.30
2019-04-14T06:58:49.447Z,59.30
2019-04-14T07:01:17.895Z,58.80
2019-04-14T07:03:46.342Z,58.50
2019-04-14T07:06:14.775Z,58.50
2019-04-14T07:08:43.251Z,57.70
2019-04-14T07:11:11.675Z,56.50
2019-04-14T07:13:40.210Z,55.50
2019-04-14T07:16:08.743Z,55.20
2019-04-14T07:18:37.180Z,53.90
2019-04-14T07:21:05.645Z,52.90
2019-04-14T07:23:34.070Z,52.00
2019-04-14T07:26:02.543Z,51.20
2019-04-14T07:28:30.987Z,50.30
2019-04-14T07:31:15.839Z,50.30
2019-04-14T07:33:48.711Z,50.10
2019-04-14T07:36:21.830Z,49.10
2019-04-14T07:39:00.919Z,46.80
2019-04-14T07:41:37.027Z,46.20
2019-04-14T07:44:10.217Z,45.80
2019-04-14T07:46:40.887Z,46.20
2019-04-14T07:49:16.638Z,44.10
2019-04-14T07:51:52.559Z,43.90
2019-04-14T07:54:41.180Z,44.20
2019-04-14T07:57:27.542Z,44.30
2019-04-14T08:00:03.659Z,43.80
2019-04-14T08:02:39.747Z,44.10
2019-04-14T08:05:09.996Z,43.50
2019-04-14T08:07:38.581Z,44.50
2019-04-14T08:10:08.483Z,43.40
2019-04-14T08:12:37.034Z,42.90
2019-04-14T08:15:07.112Z,41.50
2019-04-14T08:17:35.611Z,40.60
2019-04-14T08:20:08.663Z,40.60
2019-04-14T08:22:37.120Z,39.90
2019-04-14T08:25:06.692Z,39.00
2019-04-14T08:27:35.284Z,37.60
2019-04-14T08:30:06.359Z,38.60
2019-04-14T08:32:34.796Z,38.20
2019-04-14T08:35:04.119Z,38.00
2019-04-14T08:37:32.605Z,36.30
2019-04-14T08:40:01.114Z,36.30
2019-04-14T08:42:31.207Z,36.90
2019-04-14T08:45:01.430Z,36.50
2019-04-14T08:47:34.508Z,35.20
2019-04-14T08:50:10.559Z,35.40
2019-04-14T08:52:40.754Z,35.80
2019-04-14T08:55:13.691Z,35.00
2019-04-14T08:57:43.863Z,33.90
2019-04-14T09:00:16.971Z,32.70
2019-04-14T09:02:49.883Z,32.20
2019-04-14T09:05:29.266Z,31.60
2019-04-14T09:08:02.456Z,32.50
2019-04-14T09:10:32.541Z,31.00
2019-04-14T09:13:01.025Z,32.10
2019-04-14T09:15:29.695Z,31.40
2019-04-14T09:17:58.206Z,32.30
2019-04-14T09:20:26.783Z,30.60
2019-04-14T09:22:55.274Z,31.10
2019-04-14T09:25:23.793Z,30.50
2019-04-14T09:27:52.252Z,31.50
2019-04-14T09:30:20.854Z,30.30
2019-04-14T09:32:49.409Z,28.90
2019-04-14T09:35:17.863Z,27.80
2019-04-14T09:37:46.330Z,28.20
2019-04-14T09:40:14.788Z,27.50
2019-04-14T09:42:43.279Z,27.50
2019-04-14T09:45:11.800Z,28.40
2019-04-14T09:47:40.312Z,27.60
2019-04-14T09:50:09.064Z,27.90
2019-04-14T09:52:37.531Z,27.90
2019-04-14T09:55:07.220Z,27.60
2019-04-14T09:57:35.743Z,27.50
2019-04-14T10:00:06.457Z,27.90
2019-04-14T10:02:35.032Z,27.40
2019-04-14T10:05:04.279Z,28.10
2019-04-14T10:07:32.838Z,28.00
2019-04-14T10:10:01.350Z,26.00
2019-04-14T10:12:29.927Z,26.40
2019-04-14T10:14:58.420Z,25.20
2019-04-14T10:17:26.878Z,25.00
2019-04-14T10:19:55.351Z,24.10
2019-04-14T10:22:33.343Z,25.10
2019-04-14T10:24:53.989Z,24.70
2019-04-14T10:27:22.460Z,24.50
2019-04-14T10:29:50.950Z,24.10
2019-04-14T10:32:19.545Z,23.70
2019-04-14T10:34:48.012Z,25.20
2019-04-14T10:37:16.647Z,24.20
2019-04-14T10:39:45.097Z,23.30
2019-04-14T10:42:13.774Z,23.50
2019-04-14T10:44:42.295Z,23.00
2019-04-14T10:47:10.771Z,24.20
2019-04-14T10:49:39.261Z,25.20
2019-04-14T10:52:07.837Z,23.70
2019-04-14T10:54:36.356Z,22.40
2019-04-14T10:57:05.187Z,22.40
2019-04-14T10:59:33.648Z,22.60
2019-04-14T11:02:02.131Z,22.50
2019-04-14T11:04:30.592Z,24.10
2019-04-14T11:07:00.813Z,21.70
2019-04-14T11:09:29.338Z,21.70
2019-04-14T11:11:57.817Z,23.60
2019-04-14T11:14:26.471Z,22.90
2019-04-14T11:16:55.062Z,22.10
2019-04-14T11:19:23.537Z,21.60
2019-04-14T11:21:52.063Z,23.60
2019-04-14T11:24:20.600Z,25.20
2019-04-14T11:26:49.127Z,24.20
2019-04-14T11:29:17.609Z,22.80
2019-04-14T11:31:54.615Z,22.10
2019-04-14T11:34:27.734Z,21.00
2019-04-14T11:37:13.971Z,21.20
2019-04-14T11:39:44.196Z,21.60
2019-04-14T11:42:12.779Z,21.30
2019-04-14T11:44:41.410Z,21.00
2019-04-14T11:47:10.232Z,21.30
2019-04-14T11:49:38.819Z,21.20
2019-04-14T11:52:32.307Z,21.70
2019-04-14T11:54:40.025Z,21.40
2019-04-14T11:57:08.479Z,21.50
2019-04-14T11:59:44.534Z,20.50
2019-04-14T12:02:17.303Z,20.20
2019-04-14T12:04:47.419Z,21.00
2019-04-14T12:07:29.253Z,21.60
2019-04-14T12:10:05.625Z,20.10
2019-04-14T12:12:34.085Z,20.20
2019-04-14T12:15:02.561Z,22.60
2019-04-14T12:17:31.097Z,22.50
2019-04-14T12:19:59.568Z,22.00
2019-04-14T12:22:28.035Z,21.60
2019-04-14T12:24:56.676Z,21.60
2019-04-14T12:27:25.180Z,22.00
2019-04-14T12:29:54.463Z,21.60
2019-04-14T12:32:23.094Z,21.00
2019-04-14T12:34:51.648Z,21.20
2019-04-14T12:37:20.256Z,21.50
2019-04-14T12:39:49.222Z,21.00
2019-04-14T12:42:31.013Z,20.80
2019-04-14T12:45:01.175Z,21.30
2019-04-14T12:47:39.743Z,21.70
2019-04-14T12:50:10.107Z,21.00
2019-04-14T12:52:38.768Z,20.40
2019-04-14T12:55:08.055Z,19.30
2019-04-14T12:57:47.459Z,19.50
2019-04-14T13:00:21.253Z,19.50
2019-04-14T13:02:51.340Z,19.80
2019-04-14T13:05:19.835Z,20.70
2019-04-14T13:07:48.273Z,19.50
2019-04-14T13:10:16.829Z,19.50
2019-04-14T13:12:45.343Z,19.90
2019-04-14T13:15:13.903Z,20.50
2019-04-14T13:17:42.435Z,20.10
2019-04-14T13:20:11.651Z,21.60
2019-04-14T13:22:40.095Z,22.00
2019-04-14T13:25:08.686Z,22.20
2019-04-14T13:27:37.135Z,22.70
2019-04-14T13:30:11.012Z,22.90
2019-04-14T13:32:39.518Z,23.60
2019-04-14T13:35:08.505Z,25.00
2019-04-14T13:37:37.151Z,24.30
2019-04-14T13:40:07.049Z,22.80
2019-04-14T13:42:36.074Z,22.40
2019-04-14T13:45:06.184Z,21.80
2019-04-14T13:47:34.658Z,21.60
2019-04-14T13:50:04.914Z,21.30
2019-04-14T13:52:45.771Z,20.70
2019-04-14T13:55:04.406Z,20.70
2019-04-14T13:57:32.934Z,21.00
2019-04-14T14:00:01.402Z,20.10
2019-04-14T14:02:29.839Z,20.60
2019-04-14T14:04:58.293Z,22.00
2019-04-14T14:07:26.731Z,21.40
2019-04-14T14:09:57.089Z,21.30
2019-04-14T14:12:27.007Z,21.10
2019-04-14T14:14:57.178Z,21.00
2019-04-14T14:17:45.439Z,21.30
2019-04-14T14:20:15.779Z,21.70
2019-04-14T14:22:59.517Z,22.20
2019-04-14T14:25:26.943Z,22.90
2019-04-14T14:27:55.395Z,23.50
2019-04-14T14:30:23.939Z,24.00
2019-04-14T14:32:52.480Z,24.30
2019-04-14T14:35:21.035Z,24.30
2019-04-14T14:37:49.479Z,24.00
2019-04-14T14:40:17.964Z,24.50
2019-04-14T14:42:46.651Z,24.90
2019-04-14T14:45:17.133Z,25.20
2019-04-14T14:47:47.472Z,25.70
2019-04-14T14:50:20.339Z,26.20
2019-04-14T14:52:48.900Z,26.00
2019-04-14T14:55:17.338Z,26.20
2019-04-14T14:57:45.892Z,26.20
2019-04-14T15:00:16.607Z,26.40
2019-04-14T15:02:45.086Z,26.50
2019-04-14T15:05:13.538Z,27.00
2019-04-14T15:07:42.006Z,26.90
2019-04-14T15:10:11.166Z,27.30
2019-04-14T15:12:39.643Z,27.40
2019-04-14T15:15:08.233Z,27.80
2019-04-14T15:17:36.760Z,28.10
2019-04-14T15:20:06.426Z,28.10
2019-04-14T15:22:34.960Z,28.10
2019-04-14T15:25:03.468Z,27.60
2019-04-14T15:27:31.949Z,27.70
2019-04-14T15:30:00.564Z,27.50
2019-04-14T15:32:29.210Z,27.20
2019-04-14T15:34:58.001Z,27.60
2019-04-14T15:37:26.643Z,27.80
2019-04-14T15:39:55.075Z,28.10
2019-04-14T15:42:23.546Z,28.30
2019-04-14T15:44:52.003Z,28.60
2019-04-14T15:47:20.531Z,28.70
2019-04-14T15:49:48.990Z,28.90
2019-04-14T15:52:17.539Z,28.90
2019-04-14T15:54:46.042Z,29.10
2019-04-14T15:57:16.330Z,29.30
2019-04-14T15:59:52.360Z,29.50
2019-04-14T16:02:37.743Z,29.50
2019-04-14T16:05:08.981Z,30.00
2019-04-14T16:07:39.116Z,30.50
2019-04-14T16:10:18.764Z,30.80
2019-04-14T16:12:54.737Z,31.10
2019-04-14T16:15:27.890Z,31.40
2019-04-14T16:17:58.199Z,30.90
2019-04-14T16:20:28.953Z,31.10
2019-04-14T16:22:58.092Z,31.50
2019-04-14T16:25:44.360Z,31.70
2019-04-14T16:28:24.147Z,31.80
2019-04-14T16:31:10.751Z,32.70
2019-04-14T16:33:57.608Z,33.50
2019-04-14T16:36:26.599Z,34.80
2019-04-14T16:38:55.427Z,35.50
2019-04-14T16:41:24.562Z,36.00
2019-04-14T16:43:53.768Z,36.50
2019-04-14T16:46:22.460Z,37.10
2019-04-14T16:48:52.502Z,37.50
2019-04-14T16:51:25.452Z,37.80
2019-04-14T16:54:02.998Z,38.00
2019-04-14T16:56:43.147Z,38.10
2019-04-14T16:59:12.830Z,38.00
2019-04-14T17:01:43.771Z,38.00
2019-04-14T17:04:12.635Z,38.20
2019-04-14T17:06:41.267Z,38.20
2019-04-14T17:09:09.815Z,38.40
2019-04-14T17:11:38.307Z,38.40
2019-04-14T17:14:08.615Z,39.40
2019-04-14T17:16:38.753Z,39.30
2019-04-14T17:19:08.907Z,39.30
2019-04-14T17:21:41.531Z,39.70
2019-04-14T17:24:28.471Z,40.50
2019-04-14T17:26:59.148Z,41.00
2019-04-14T17:29:36.022Z,41.60
2019-04-14T17:32:22.216Z,41.90
2019-04-14T17:35:10.677Z,42.10
2019-04-14T17:37:50.344Z,41.90
2019-04-14T17:40:26.701Z,42.00
2019-04-14T17:43:06.046Z,41.90
2019-04-14T17:45:41.872Z,41.80
2019-04-14T17:48:30.682Z,41.90
2019-04-14T17:51:04.722Z,41.80
2019-04-14T17:53:37.932Z,41.70
2019-04-14T17:56:24.319Z,41.70
2019-04-14T17:59:03.709Z,41.90
2019-04-14T18:01:37.448Z,42.00
2019-04-14T18:04:08.063Z,42.00
2019-04-14T18:06:53.456Z,42.30
2019-04-14T18:09:39.987Z,42.50
2019-04-14T18:12:10.080Z,42.70
2019-04-14T18:14:59.175Z,42.90
2019-04-14T18:17:29.886Z,43.20
2019-04-14T18:20:09.385Z,43.20
2019-04-14T18:22:38.623Z,43.00
2019-04-14T18:25:09.148Z,42.90
2019-04-14T18:27:39.671Z,43.20
2019-04-14T18:30:22.010Z,43.10
2019-04-14T18:33:08.495Z,43.20
2019-04-14T18:35:38.731Z,42.70
2019-04-14T18:38:08.941Z,42.80
2019-04-14T18:40:45.490Z,43.10
2019-04-14T18:43:24.897Z,43.20
2019-04-14T18:45:55.025Z,43.60
2019-04-14T18:48:29.340Z,43.50
2019-04-14T18:51:17.736Z,43.60
2019-04-14T18:53:53.803Z,43.80
2019-04-14T18:56:26.934Z,44.70
2019-04-14T18:59:13.274Z,45.50
2019-04-14T19:01:46.555Z,45.60
2019-04-14T19:04:15.673Z,45.70
2019-04-14T19:06:44.653Z,45.90
2019-04-14T19:09:13.836Z,46.40
2019-04-14T19:11:47.320Z,46.50
2019-04-14T19:14:18.114Z,46.20
2019-04-14T19:16:48.791Z,47.50
2019-04-14T19:19:19.123Z,47.10
2019-04-14T19:21:48.472Z,46.70
2019-04-14T19:24:17.123Z,47.30
2019-04-14T19:26:45.961Z,47.00
2019-04-14T19:29:14.893Z,47.10
2019-04-14T19:31:43.710Z,47.50
2019-04-14T19:34:12.608Z,48.00
2019-04-14T19:36:41.520Z,48.10
2019-04-14T19:39:13.091Z,48.10
2019-04-14T19:41:41.603Z,47.80
2019-04-14T19:44:10.041Z,47.90
2019-04-14T19:46:38.496Z,48.60
2019-04-14T19:49:07.084Z,48.30
2019-04-14T19:51:35.937Z,48.20
2019-04-14T19:54:04.728Z,48.40
2019-04-14T19:56:33.326Z,48.60
2019-04-14T19:59:01.767Z,48.60
2019-04-14T20:01:30.734Z,48.90
2019-04-14T20:03:59.563Z,48.70
2019-04-14T20:06:28.577Z,48.80
2019-04-14T20:08:57.672Z,49.10
2019-04-14T20:11:26.287Z,48.80
2019-04-14T20:13:54.718Z,48.70
2019-04-14T20:16:27.536Z,48.50
2019-04-14T20:19:13.924Z,48.40
2019-04-14T20:21:46.844Z,48.40
2019-04-14T20:24:34.975Z,48.50
2019-04-14T20:27:07.663Z,48.60
2019-04-14T20:29:37.947Z,49.10
2019-04-14T20:32:08.180Z,49.10
2019-04-14T20:34:38.160Z,49.20
2019-04-14T20:37:06.802Z,49.40
2019-04-14T20:39:35.384Z,49.80
2019-04-14T20:42:05.428Z,49.40
2019-04-14T20:44:34.652Z,49.80
2019-04-14T20:47:04.211Z,49.70
2019-04-14T20:49:33.149Z,49.20
2019-04-14T20:52:01.617Z,49.30
2019-04-14T20:54:30.140Z,49.50
2019-04-14T20:56:58.667Z,49.30
2019-04-14T20:59:27.142Z,49.30
2019-04-14T21:02:13.657Z,49.50
2019-04-14T21:04:49.798Z,49.20
2019-04-14T21:07:28.985Z,49.70
2019-04-14T21:10:02.094Z,49.80
2019-04-14T21:12:41.529Z,49.80
2019-04-14T21:15:29.995Z,50.00
2019-04-14T21:18:00.172Z,49.90
2019-04-14T21:20:30.270Z,49.80
2019-04-14T21:23:00.535Z,49.90
2019-04-14T21:25:30.615Z,49.80
2019-04-14T21:28:00.799Z,49.40
2019-04-14T21:30:34.169Z,49.50
2019-04-14T21:33:07.060Z,49.50
2019-04-14T21:35:55.579Z,49.50
2019-04-14T21:38:25.789Z,49.70
2019-04-14T21:41:01.609Z,50.10
2019-04-14T21:43:30.065Z,49.80
2019-04-14T21:45:58.582Z,49.80
2019-04-14T21:48:27.238Z,49.50
2019-04-14T21:50:55.693Z,49.90
2019-04-14T21:53:24.151Z,49.90
2019-04-14T21:55:52.604Z,49.90
2019-04-14T21:58:25.610Z,50.20
2019-04-14T22:01:13.661Z,49.60
2019-04-14T22:03:46.634Z,49.60
2019-04-14T22:06:22.890Z,49.70
2019-04-14T22:08:53.077Z,49.70
2019-04-14T22:11:23.195Z,49.40
2019-04-14T22:13:51.787Z,49.40
2019-04-14T22:16:20.233Z,49.50
2019-04-14T22:18:49.184Z,49.50
2019-04-14T22:21:17.740Z,49.30
2019-04-14T22:23:59.832Z,49.40
2019-04-14T22:26:26.025Z,49.50
2019-04-14T22:28:46.647Z,49.60
2019-04-14T22:31:15.093Z,49.60
2019-04-14T22:33:43.572Z,49.80
2019-04-14T22:36:12.084Z,49.90
2019-04-14T22:38:40.557Z,50.10
2019-04-14T22:41:09.150Z,50.40
2019-04-14T22:43:37.719Z,50.20
2019-04-14T22:46:06.224Z,50.40
2019-04-14T22:48:35.799Z,50.20
2019-04-14T22:51:04.269Z,50.40
2019-04-14T22:53:32.803Z,50.50
2019-04-14T22:56:01.243Z,50.30
2019-04-14T22:58:29.835Z,50.40
2019-04-14T23:01:05.915Z,50.50
2019-04-14T23:03:45.309Z,50.40
2019-04-14T23:06:31.828Z,50.70
2019-04-14T23:09:01.958Z,50.70
2019-04-14T23:11:50.122Z,50.80
2019-04-14T23:14:32.378Z,50.80
2019-04-14T23:17:18.855Z,51.10
2019-04-14T23:19:49.034Z,51.40
2019-04-14T23:22:31.124Z,51.70
2019-04-14T23:24:59.586Z,52.20
2019-04-14T23:27:28.026Z,51.90
2019-04-14T23:29:56.567Z,51.80
2019-04-14T23:32:25.061Z,51.80
2019-04-14T23:34:53.531Z,51.80
2019-04-14T23:37:21.992Z,52.00
2019-04-14T23:39:50.495Z,52.00
2019-04-14T23:42:18.942Z,52.40
2019-04-14T23:44:47.472Z,52.20
2019-04-14T23:47:15.922Z,52.80
2019-04-14T23:49:44.384Z,52.50
2019-04-14T23:52:12.930Z,52.50
2019-04-14T23:54:41.418Z,52.90
2019-04-14T23:57:10.054Z,53.00
2019-04-14T23:59:38.479Z,53.40
